KDLH

Duluth International Airport

Airport
ICAO code
KDLH
IATA Code
DLH
Summary
ICAO Region
NAM
ICAO Territory
Location

Duluth, Minnesota

Serving
Duluth
Elevation
1428 ft
Coordinates
46° 50' 29" N , 92° 10' 60" W
KCC
Airport CFIT
Altimeter Temperature Error Correction
Airport GND
Aircraft Ground De/Anti Icing
Airport RE
Landing on Contaminated Runways
Metar
KDLH 152055Z 16008KT 10SM FEW043 BKN110 19/12 A2993 RMK AO2 SLP139 T01940122 56013

Description

Duluth International Airport is a public-use, joint civil-military (ANG) airport located 5 nm northwest of the central business district of Duluth, a city in St. Louis County, Minnesota.

Airport map

Aerial View

SKYbrary Partners:

Safety knowledge contributed by: